Time;durP1;ratioP1;P1;durP2;ratioP2;P2;SDS_P1;SDS_P2;PMS_P1;PMS_P2;Temp;Humidity;BMP_temperature;BMP_pressure;BME280_temperature;BME280_humidity;BME280_pressure;Samples;Min_cycle;Max_cycle;Signal;HPM_P1;HPM_P2
2021/10/21 00:00:46;;;;;;;3.15;3.05;;;;;;;;;;5058366;28;20052;-50
2021/10/21 00:03:13;;;;;;;3.75;3.55;;;;;;;;;;5062996;28;20052;-50
2021/10/21 00:05:40;;;;;;;3.97;3.95;;;;;;;;;;5058100;28;20037;-47
2021/10/21 00:08:07;;;;;;;8.68;5.15;;;;;;;;;;5063354;28;20064;-48
2021/10/21 00:10:33;;;;;;;4.82;4.63;;;;;;;;;;5055628;28;20568;-51
2021/10/21 00:13:00;;;;;;;4.28;4.03;;;;;;;;;;5068139;28;20130;-49
2021/10/21 00:15:27;;;;;;;3.40;3.30;;;;;;;;;;5066916;28;20048;-48
2021/10/21 00:17:54;;;;;;;4.45;4.40;;;;;;;;;;5070393;28;20354;-48
2021/10/21 00:20:21;;;;;;;4.97;4.88;;;;;;;;;;5066962;28;20044;-47
2021/10/21 00:22:47;;;;;;;5.22;5.03;;;;;;;;;;5069065;28;20060;-49
2021/10/21 00:25:14;;;;;;;5.03;4.82;;;;;;;;;;5069600;28;20042;-48
2021/10/21 00:27:41;;;;;;;5.47;5.38;;;;;;;;;;5068537;28;20040;-45
2021/10/21 00:30:08;;;;;;;5.43;5.32;;;;;;;;;;5062191;28;20496;-50
2021/10/21 00:32:34;;;;;;;5.30;5.00;;;;;;;;;;5069922;28;20035;-45
2021/10/21 00:35:01;;;;;;;5.07;4.75;;;;;;;;;;5068522;28;20516;-47
2021/10/21 00:37:28;;;;;;;4.07;3.97;;;;;;;;;;5069880;28;20048;-47
2021/10/21 00:39:55;;;;;;;5.88;5.57;;;;;;;;;;5069434;28;20057;-49
2021/10/21 00:42:21;;;;;;;6.32;6.05;;;;;;;;;;5069414;28;20048;-48
2021/10/21 00:44:48;;;;;;;6.70;6.50;;;;;;;;;;5067845;28;20037;-48
2021/10/21 00:47:16;;;;;;;6.65;6.55;;;;;;;;;;5054466;28;20041;-48
2021/10/21 00:49:43;;;;;;;8.18;7.68;;;;;;;;;;5067973;28;20487;-50
2021/10/21 00:52:09;;;;;;;7.18;7.07;;;;;;;;;;5067820;28;20040;-49
2021/10/21 00:54:36;;;;;;;8.07;7.80;;;;;;;;;;5060798;28;20500;-47
2021/10/21 00:57:04;;;;;;;6.80;6.60;;;;;;;;;;5065494;28;20044;-50
2021/10/21 00:59:31;;;;;;;8.45;7.82;;;;;;;;;;5059386;28;20048;-52
2021/10/21 01:01:58;;;;;;;6.32;6.22;;;;;;;;;;5066121;28;20037;-50
2021/10/21 01:04:25;;;;;;;7.35;7.15;;;;;;;;;;5069356;28;20032;-48
2021/10/21 01:06:53;;;;;;;7.35;6.97;;;;;;;;;;5062041;28;20045;-49
2021/10/21 01:09:20;;;;;;;6.60;6.43;;;;;;;;;;5059055;28;20044;-46
2021/10/21 01:11:47;;;;;;;6.50;6.38;;;;;;;;;;5055575;28;20440;-47
2021/10/21 01:14:13;;;;;;;6.63;6.53;;;;;;;;;;5064776;28;20044;-47
2021/10/21 01:16:40;;;;;;;6.18;5.82;;;;;;;;;;5068593;28;20090;-48
2021/10/21 01:19:15;;;;;;;3.75;3.65;;;;;;;;;;5068179;28;20047;-49
2021/10/21 01:21:43;;;;;;;7.03;6.88;;;;;;;;;;5066036;28;20040;-50
2021/10/21 01:24:09;;;;;;;5.63;5.43;;;;;;;;;;5068662;28;20540;-51
2021/10/21 01:26:36;;;;;;;6.72;6.32;;;;;;;;;;5066634;28;20033;-48
2021/10/21 01:29:04;;;;;;;7.18;6.95;;;;;;;;;;5066578;28;20063;-46
2021/10/21 01:31:31;;;;;;;6.55;6.45;;;;;;;;;;5068112;28;20373;-47
2021/10/21 01:33:58;;;;;;;6.93;6.82;;;;;;;;;;5067272;28;20115;-49
2021/10/21 01:36:24;;;;;;;7.30;7.10;;;;;;;;;;5070046;28;20443;-48
2021/10/21 01:38:51;;;;;;;6.32;6.07;;;;;;;;;;5067954;28;20083;-50
2021/10/21 01:41:18;;;;;;;6.50;6.40;;;;;;;;;;5065788;28;20401;-48
2021/10/21 01:43:45;;;;;;;6.45;6.35;;;;;;;;;;5065174;28;20041;-46
2021/10/21 01:46:12;;;;;;;6.68;6.38;;;;;;;;;;5053215;28;20036;-47
2021/10/21 01:48:39;;;;;;;5.82;5.72;;;;;;;;;;5069975;28;20539;-49
2021/10/21 01:51:06;;;;;;;6.68;6.28;;;;;;;;;;5066505;28;20032;-47
2021/10/21 01:53:34;;;;;;;6.10;5.90;;;;;;;;;;5066459;28;20063;-47
2021/10/21 01:56:00;;;;;;;5.38;5.28;;;;;;;;;;5066065;28;20122;-48
2021/10/21 01:58:27;;;;;;;6.25;5.85;;;;;;;;;;5052370;28;20050;-50
2021/10/21 02:00:55;;;;;;;3.58;3.47;;;;;;;;;;5068310;28;20083;-47
2021/10/21 02:03:21;;;;;;;5.47;5.28;;;;;;;;;;5066492;28;20040;-48
2021/10/21 02:05:48;;;;;;;5.47;5.38;;;;;;;;;;5058911;28;20085;-46
2021/10/21 02:08:15;;;;;;;5.15;5.05;;;;;;;;;;5064400;28;20041;-46
2021/10/21 02:10:42;;;;;;;5.38;5.25;;;;;;;;;;5052237;28;20040;-49
2021/10/21 02:13:09;;;;;;;6.97;6.78;;;;;;;;;;5067687;28;20036;-47
2021/10/21 02:15:35;;;;;;;6.88;6.78;;;;;;;;;;5067255;28;20768;-47
2021/10/21 02:18:02;;;;;;;6.78;6.65;;;;;;;;;;5058663;28;20151;-50
2021/10/21 02:20:29;;;;;;;9.00;8.68;;;;;;;;;;5068975;28;20032;-47
2021/10/21 02:22:56;;;;;;;8.02;7.93;;;;;;;;;;5070391;28;20120;-47
2021/10/21 02:25:22;;;;;;;8.35;7.80;;;;;;;;;;5070682;28;20428;-47
2021/10/21 02:27:49;;;;;;;6.88;6.78;;;;;;;;;;5072116;28;20048;-48
2021/10/21 02:30:17;;;;;;;9.27;9.07;;;;;;;;;;5072205;28;20032;-47
2021/10/21 02:32:44;;;;;;;10.38;10.07;;;;;;;;;;5071756;28;20520;-46
2021/10/21 02:35:11;;;;;;;8.98;8.77;;;;;;;;;;5072385;28;20068;-49
2021/10/21 02:37:38;;;;;;;9.55;9.45;;;;;;;;;;5069245;28;20072;-46
2021/10/21 02:40:07;;;;;;;9.38;9.02;;;;;;;;;;5071186;28;20064;-47
2021/10/21 02:42:34;;;;;;;8.43;8.32;;;;;;;;;;5062463;28;20041;-45
2021/10/21 02:45:02;;;;;;;10.52;10.32;;;;;;;;;;5063670;28;20527;-49
2021/10/21 02:47:29;;;;;;;8.98;8.77;;;;;;;;;;5072254;28;20036;-47
2021/10/21 02:49:56;;;;;;;10.73;10.35;;;;;;;;;;5069870;28;20507;-46
2021/10/21 02:52:23;;;;;;;10.40;10.20;;;;;;;;;;5067046;28;20086;-47
2021/10/21 02:54:49;;;;;;;10.32;10.13;;;;;;;;;;5065387;28;20045;-49
2021/10/21 02:57:16;;;;;;;9.93;9.38;;;;;;;;;;5059836;28;20169;-46
2021/10/21 02:59:43;;;;;;;10.98;10.43;;;;;;;;;;5071515;28;20040;-47
2021/10/21 03:02:09;;;;;;;10.00;9.80;;;;;;;;;;5080959;28;20366;-45
2021/10/21 03:04:36;;;;;;;9.55;9.35;;;;;;;;;;5068767;28;20052;-49
2021/10/21 03:07:03;;;;;;;12.20;11.80;;;;;;;;;;5068249;28;20508;-46
2021/10/21 03:09:30;;;;;;;10.07;9.80;;;;;;;;;;5070615;28;20082;-47
2021/10/21 03:11:57;;;;;;;10.50;10.23;;;;;;;;;;5072202;28;20072;-47
2021/10/21 03:14:23;;;;;;;9.07;8.88;;;;;;;;;;5064514;28;20515;-46
2021/10/21 03:16:50;;;;;;;9.75;9.55;;;;;;;;;;5066510;28;20090;-45
2021/10/21 03:19:17;;;;;;;9.60;9.30;;;;;;;;;;5068151;28;20052;-47
2021/10/21 03:21:44;;;;;;;8.23;8.13;;;;;;;;;;5071492;28;20068;-49
2021/10/21 03:24:10;;;;;;;7.80;7.47;;;;;;;;;;5071043;28;20039;-47
2021/10/21 03:26:37;;;;;;;8.65;8.45;;;;;;;;;;5071130;28;20380;-46
2021/10/21 03:29:04;;;;;;;11.50;11.13;;;;;;;;;;5058118;28;20041;-48
2021/10/21 03:31:31;;;;;;;10.20;10.05;;;;;;;;;;5063961;28;20033;-48
2021/10/21 03:33:58;;;;;;;10.40;10.10;;;;;;;;;;5053569;28;20075;-47
2021/10/21 03:36:25;;;;;;;11.13;10.82;;;;;;;;;;5065502;28;20052;-48
2021/10/21 03:38:52;;;;;;;11.30;11.00;;;;;;;;;;5057300;28;20522;-45
2021/10/21 03:41:19;;;;;;;10.63;10.43;;;;;;;;;;5060711;28;20040;-48
2021/10/21 03:43:46;;;;;;;8.52;8.32;;;;;;;;;;5068426;28;20041;-45
2021/10/21 03:46:13;;;;;;;9.90;9.60;;;;;;;;;;5071017;28;20049;-50
2021/10/21 03:48:39;;;;;;;10.23;10.02;;;;;;;;;;5066473;28;20045;-48
2021/10/21 03:51:06;;;;;;;8.68;8.48;;;;;;;;;;5070785;28;20538;-47
2021/10/21 03:53:33;;;;;;;8.27;8.15;;;;;;;;;;5071668;28;20044;-45
2021/10/21 03:56:00;;;;;;;10.13;9.88;;;;;;;;;;5062780;28;20048;-46
2021/10/21 03:58:26;;;;;;;7.45;7.25;;;;;;;;;;5069585;28;20036;-45
2021/10/21 04:00:53;;;;;;;9.98;9.68;;;;;;;;;;5067689;28;20047;-50
2021/10/21 04:03:20;;;;;;;10.52;10.27;;;;;;;;;;5053407;28;20044;-48
2021/10/21 04:05:47;;;;;;;6.45;6.25;;;;;;;;;;5070238;28;20048;-49
2021/10/21 04:08:14;;;;;;;10.73;10.32;;;;;;;;;;5069079;28;20124;-48
2021/10/21 04:10:42;;;;;;;9.73;9.52;;;;;;;;;;5071555;28;20437;-47
2021/10/21 04:13:12;;;;;;;9.32;8.90;;;;;;;;;;5067959;28;20445;-48
2021/10/21 04:15:40;;;;;;;7.90;7.68;;;;;;;;;;5057796;28;20040;-45
2021/10/21 04:18:08;;;;;;;7.57;7.18;;;;;;;;;;5068637;28;20048;-46
2021/10/21 04:20:35;;;;;;;7.03;6.55;;;;;;;;;;5068908;28;20824;-50
2021/10/21 04:23:02;;;;;;;8.27;8.05;;;;;;;;;;5069004;28;20032;-48
2021/10/21 04:25:28;;;;;;;11.60;11.40;;;;;;;;;;5067870;28;20040;-48
2021/10/21 04:27:55;;;;;;;9.70;9.60;;;;;;;;;;5070042;28;20412;-45
2021/10/21 04:30:22;;;;;;;11.35;10.95;;;;;;;;;;5067635;28;20135;-48
2021/10/21 04:32:49;;;;;;;10.68;10.38;;;;;;;;;;5068548;28;20036;-48
2021/10/21 04:35:16;;;;;;;10.23;9.88;;;;;;;;;;5070547;28;20068;-49
2021/10/21 04:37:42;;;;;;;11.93;11.68;;;;;;;;;;5068965;28;20062;-45
2021/10/21 04:40:10;;;;;;;13.48;13.18;;;;;;;;;;5068566;28;20052;-48
2021/10/21 04:42:37;;;;;;;13.20;12.63;;;;;;;;;;5068632;28;20051;-47
2021/10/21 04:45:04;;;;;;;9.98;9.85;;;;;;;;;;5066819;28;20055;-49
2021/10/21 04:47:32;;;;;;;11.88;11.48;;;;;;;;;;5053225;28;20044;-47
2021/10/21 04:49:59;;;;;;;11.20;11.00;;;;;;;;;;5065904;28;20032;-46
2021/10/21 04:52:25;;;;;;;12.40;12.20;;;;;;;;;;5066626;28;20048;-46
2021/10/21 04:54:52;;;;;;;12.35;12.10;;;;;;;;;;5064787;28;20032;-47
2021/10/21 04:57:19;;;;;;;14.05;13.65;;;;;;;;;;5068668;28;20058;-48
2021/10/21 04:59:46;;;;;;;8.38;8.15;;;;;;;;;;5059698;28;20086;-46
2021/10/21 05:02:12;;;;;;;8.05;7.85;;;;;;;;;;5066516;28;20048;-47
2021/10/21 05:04:39;;;;;;;12.18;11.75;;;;;;;;;;5068340;28;20040;-48
2021/10/21 05:07:06;;;;;;;12.13;11.60;;;;;;;;;;5068658;28;20070;-46
2021/10/21 05:09:33;;;;;;;12.48;12.18;;;;;;;;;;5069477;28;20032;-46
2021/10/21 05:12:00;;;;;;;9.73;9.60;;;;;;;;;;5059938;28;20045;-46
2021/10/21 05:14:26;;;;;;;11.45;11.05;;;;;;;;;;5066849;28;20135;-47
2021/10/21 05:16:53;;;;;;;10.02;9.68;;;;;;;;;;5068686;28;20055;-48
2021/10/21 05:19:20;;;;;;;7.57;7.38;;;;;;;;;;5057408;28;20075;-48
2021/10/21 05:21:53;;;;;;;9.48;9.27;;;;;;;;;;5062897;28;20029;-54
2021/10/21 05:24:20;;;;;;;10.60;10.35;;;;;;;;;;5052115;28;20043;-53
2021/10/21 05:26:47;;;;;;;6.50;6.28;;;;;;;;;;5070194;28;20048;-52
2021/10/21 05:29:14;;;;;;;7.30;7.20;;;;;;;;;;5069242;28;20040;-54
2021/10/21 05:31:40;;;;;;;9.02;8.63;;;;;;;;;;5067269;28;20120;-52
2021/10/21 05:34:07;;;;;;;8.90;8.60;;;;;;;;;;5065660;28;20037;-54
2021/10/21 05:36:34;;;;;;;10.77;10.38;;;;;;;;;;5052053;28;20036;-53
2021/10/21 05:39:01;;;;;;;7.53;7.07;;;;;;;;;;5061182;28;20084;-54
2021/10/21 05:41:28;;;;;;;9.73;9.52;;;;;;;;;;5068001;28;20039;-53
2021/10/21 05:43:55;;;;;;;9.05;8.75;;;;;;;;;;5055634;28;20064;-53
2021/10/21 05:46:22;;;;;;;8.73;8.52;;;;;;;;;;5062251;28;20056;-51
2021/10/21 05:48:49;;;;;;;8.25;8.05;;;;;;;;;;5073472;28;20128;-51
2021/10/21 05:51:15;;;;;;;7.93;7.72;;;;;;;;;;5069849;28;20044;-53
2021/10/21 05:53:43;;;;;;;7.47;7.35;;;;;;;;;;5058305;28;20251;-53
2021/10/21 05:56:10;;;;;;;6.88;6.68;;;;;;;;;;5059807;28;20037;-52
2021/10/21 05:58:38;;;;;;;8.60;8.50;;;;;;;;;;5068900;28;20032;-54
2021/10/21 06:01:06;;;;;;;7.90;7.70;;;;;;;;;;5072544;28;20033;-53
2021/10/21 06:03:36;;;;;;;8.25;8.15;;;;;;;;;;5060347;28;20033;-53
2021/10/21 06:06:03;;;;;;;6.60;6.50;;;;;;;;;;5065610;28;20048;-54
2021/10/21 06:08:30;;;;;;;5.90;5.72;;;;;;;;;;5059570;28;20040;-53
2021/10/21 06:10:57;;;;;;;5.53;5.22;;;;;;;;;;5065427;28;20485;-53
2021/10/21 06:13:24;;;;;;;5.10;5.00;;;;;;;;;;5072084;28;20063;-54
2021/10/21 06:15:51;;;;;;;4.13;3.92;;;;;;;;;;5071764;28;20040;-53
2021/10/21 06:18:17;;;;;;;5.68;5.30;;;;;;;;;;5068019;28;20555;-54
2021/10/21 06:20:45;;;;;;;5.28;5.07;;;;;;;;;;5052595;28;20041;-53
2021/10/21 06:23:12;;;;;;;5.43;5.07;;;;;;;;;;5070265;28;20053;-54
2021/10/21 06:25:39;;;;;;;9.43;8.93;;;;;;;;;;5071235;28;20044;-51
2021/10/21 06:28:05;;;;;;;11.02;10.05;;;;;;;;;;5068180;28;20110;-54
2021/10/21 06:30:34;;;;;;;4.15;4.05;;;;;;;;;;5068916;28;20051;-52
2021/10/21 06:33:01;;;;;;;4.60;4.25;;;;;;;;;;5054970;28;20040;-51
2021/10/21 06:35:28;;;;;;;4.95;4.85;;;;;;;;;;5072789;28;20074;-52
2021/10/21 06:37:55;;;;;;;3.92;3.83;;;;;;;;;;5069548;28;20496;-53
2021/10/21 06:40:22;;;;;;;5.03;4.93;;;;;;;;;;5062296;28;20102;-51
2021/10/21 06:42:49;;;;;;;5.13;5.03;;;;;;;;;;5071185;28;20043;-53
2021/10/21 06:45:15;;;;;;;4.35;4.15;;;;;;;;;;5070763;28;20134;-53
2021/10/21 06:47:42;;;;;;;3.58;3.55;;;;;;;;;;5079881;28;20032;-51
2021/10/21 06:50:10;;;;;;;2.80;2.70;;;;;;;;;;5079142;28;20400;-53
2021/10/21 06:52:39;;;;;;;3.78;3.58;;;;;;;;;;5055056;28;20041;-54
2021/10/21 06:55:07;;;;;;;4.60;3.80;;;;;;;;;;5070866;28;20115;-53
2021/10/21 06:57:50;;;;;;;4.13;3.92;;;;;;;;;;5061846;28;20493;-52
2021/10/21 07:00:19;;;;;;;3.28;3.17;;;;;;;;;;5071890;28;20070;-53
2021/10/21 07:02:46;;;;;;;3.58;3.10;;;;;;;;;;5070993;28;20423;-53
2021/10/21 07:05:13;;;;;;;3.38;3.17;;;;;;;;;;5070924;28;20035;-53
2021/10/21 07:07:40;;;;;;;1.75;1.75;;;;;;;;;;5062637;28;20071;-53
2021/10/21 07:10:08;;;;;;;2.50;2.40;;;;;;;;;;5062635;28;20036;-54
2021/10/21 07:12:39;;;;;;;2.45;2.42;;;;;;;;;;5064377;28;20520;-53
2021/10/21 07:15:07;;;;;;;2.75;2.55;;;;;;;;;;5067737;28;20456;-54
2021/10/21 07:17:34;;;;;;;2.60;2.28;;;;;;;;;;5071596;28;20139;-53
2021/10/21 07:20:02;;;;;;;2.80;2.60;;;;;;;;;;5060106;28;20037;-54
2021/10/21 07:22:29;;;;;;;2.88;2.80;;;;;;;;;;5062184;28;20051;-55
2021/10/21 07:24:56;;;;;;;3.22;2.78;;;;;;;;;;5058330;28;20058;-54
2021/10/21 07:27:22;;;;;;;2.67;2.58;;;;;;;;;;5069538;28;20045;-53
2021/10/21 07:29:49;;;;;;;2.38;2.28;;;;;;;;;;5070242;28;20427;-54
2021/10/21 07:32:16;;;;;;;5.13;4.72;;;;;;;;;;5060657;28;20073;-54
2021/10/21 07:34:43;;;;;;;6.40;6.30;;;;;;;;;;5064352;28;20041;-53
2021/10/21 07:37:10;;;;;;;7.50;7.30;;;;;;;;;;5071469;28;20051;-53
2021/10/21 07:39:38;;;;;;;7.28;7.18;;;;;;;;;;5064798;28;20052;-54
2021/10/21 07:42:05;;;;;;;7.50;7.25;;;;;;;;;;5063871;28;20044;-53
2021/10/21 07:44:43;;;;;;;6.60;6.47;;;;;;;;;;5070020;28;20032;-54
2021/10/21 07:47:10;;;;;;;3.63;3.53;;;;;;;;;;5069205;28;20036;-54
2021/10/21 07:49:37;;;;;;;4.63;4.53;;;;;;;;;;5053931;28;20498;-54
2021/10/21 07:52:04;;;;;;;5.10;5.00;;;;;;;;;;5062723;28;20381;-53
2021/10/21 07:54:31;;;;;;;3.45;3.35;;;;;;;;;;5059101;28;20158;-54
2021/10/21 07:57:02;;;;;;;6.65;6.45;;;;;;;;;;5072296;28;20526;-53
2021/10/21 07:59:29;;;;;;;2.67;2.55;;;;;;;;;;5066705;28;20419;-54
2021/10/21 08:01:56;;;;;;;3.72;3.63;;;;;;;;;;5069358;28;21526;-53
2021/10/21 08:04:27;;;;;;;3.22;3.13;;;;;;;;;;5071430;28;20040;-51
2021/10/21 08:06:56;;;;;;;5.05;4.80;;;;;;;;;;5068849;28;20041;-52
2021/10/21 08:09:23;;;;;;;3.33;3.20;;;;;;;;;;5056412;28;20040;-53
2021/10/21 08:11:52;;;;;;;5.95;5.85;;;;;;;;;;5069019;28;20037;-54
2021/10/21 08:14:19;;;;;;;7.10;6.90;;;;;;;;;;5069816;28;20397;-52
2021/10/21 08:16:46;;;;;;;5.60;5.30;;;;;;;;;;5068548;28;20051;-53
2021/10/21 08:19:14;;;;;;;6.15;5.85;;;;;;;;;;5067981;28;20048;-54
2021/10/21 08:21:40;;;;;;;5.07;4.68;;;;;;;;;;5070830;28;20546;-53
2021/10/21 08:24:08;;;;;;;3.42;2.80;;;;;;;;;;5069002;28;20059;-52
2021/10/21 08:26:35;;;;;;;3.58;3.38;;;;;;;;;;5068786;28;20036;-53
2021/10/21 08:29:06;;;;;;;3.47;3.28;;;;;;;;;;5062935;28;20033;-52
2021/10/21 08:31:33;;;;;;;2.83;2.72;;;;;;;;;;5065948;28;20040;-53
2021/10/21 08:34:00;;;;;;;2.55;2.45;;;;;;;;;;5052565;28;20083;-54
2021/10/21 08:36:28;;;;;;;2.55;2.45;;;;;;;;;;5060283;28;20489;-53
2021/10/21 08:38:55;;;;;;;2.33;2.13;;;;;;;;;;5060776;28;20048;-51
2021/10/21 08:41:23;;;;;;;1.73;1.42;;;;;;;;;;5070070;28;20050;-53
2021/10/21 08:43:49;;;;;;;1.70;1.50;;;;;;;;;;5069126;28;20063;-53
2021/10/21 08:46:24;;;;;;;2.00;1.77;;;;;;;;;;5057655;28;20037;-53
2021/10/21 08:48:54;;;;;;;3.15;2.25;;;;;;;;;;5058251;28;20052;-53
2021/10/21 08:51:21;;;;;;;2.47;2.28;;;;;;;;;;5058303;28;20040;-53
2021/10/21 08:53:48;;;;;;;2.92;2.70;;;;;;;;;;5052437;28;20110;-53
2021/10/21 08:56:19;;;;;;;2.60;2.50;;;;;;;;;;5065816;28;20041;-53
2021/10/21 08:58:46;;;;;;;3.40;2.97;;;;;;;;;;5067631;28;20040;-54
2021/10/21 09:01:16;;;;;;;2.40;2.30;;;;;;;;;;5068440;28;20132;-53
2021/10/21 09:04:13;;;;;;;2.10;2.10;;;;;;;;;;5067471;28;20046;-54
2021/10/21 09:09:21;;;;;;;2.17;2.08;;;;;;;;;;5069000;28;20497;-54
2021/10/21 09:12:08;;;;;;;2.45;2.10;;;;;;;;;;5061345;28;20044;-54
2021/10/21 09:14:45;;;;;;;2.20;2.00;;;;;;;;;;5057885;28;20037;-54
2021/10/21 09:17:13;;;;;;;7.82;1.85;;;;;;;;;;5067458;28;20040;-52
2021/10/21 09:19:41;;;;;;;1.70;1.60;;;;;;;;;;5066813;28;20041;-54
2021/10/21 09:22:28;;;;;;;1.73;1.63;;;;;;;;;;5051800;28;20052;-52
2021/10/21 09:25:03;;;;;;;1.40;1.40;;;;;;;;;;5069830;28;20469;-53
2021/10/21 09:27:34;;;;;;;2.55;2.28;;;;;;;;;;5068741;28;20039;-53
2021/10/21 09:30:03;;;;;;;1.80;1.80;;;;;;;;;;5068796;28;20045;-53
2021/10/21 09:32:35;;;;;;;1.70;1.70;;;;;;;;;;5068045;28;20429;-53
2021/10/21 09:35:04;;;;;;;1.60;1.60;;;;;;;;;;5068039;28;20139;-53
2021/10/21 09:37:30;;;;;;;2.17;2.08;;;;;;;;;;5059065;28;20052;-52
2021/10/21 09:39:57;;;;;;;3.53;1.70;;;;;;;;;;5061053;28;20049;-52
2021/10/21 09:42:26;;;;;;;1.77;1.27;;;;;;;;;;5061560;28;20053;-55
2021/10/21 09:45:09;;;;;;;1.30;1.20;;;;;;;;;;5067152;28;20473;-52
2021/10/21 09:47:37;;;;;;;1.42;1.42;;;;;;;;;;5067126;28;20037;-53
2021/10/21 09:50:15;;;;;;;4.68;2.65;;;;;;;;;;5054667;28;20037;-53
2021/10/21 09:52:42;;;;;;;1.75;1.65;;;;;;;;;;5066324;28;20037;-53
2021/10/21 09:55:11;;;;;;;2.00;1.77;;;;;;;;;;5067701;28;20041;-54
2021/10/21 09:57:38;;;;;;;1.33;1.33;;;;;;;;;;5077020;28;20072;-54
2021/10/21 10:00:07;;;;;;;1.73;1.52;;;;;;;;;;5067485;28;20029;-53
2021/10/21 10:02:34;;;;;;;1.13;1.02;;;;;;;;;;5065834;28;20055;-55
2021/10/21 10:05:04;;;;;;;1.73;1.58;;;;;;;;;;5067937;28;20527;-53
2021/10/21 10:07:31;;;;;;;2.47;1.20;;;;;;;;;;5067144;28;20044;-53
2021/10/21 10:09:59;;;;;;;1.48;1.20;;;;;;;;;;5056360;28;20045;-52
2021/10/21 10:12:30;;;;;;;1.58;1.48;;;;;;;;;;5059989;28;20044;-54
2021/10/21 10:14:58;;;;;;;3.85;1.42;;;;;;;;;;5064733;28;20040;-52
2021/10/21 10:17:27;;;;;;;1.50;1.40;;;;;;;;;;5060523;28;20037;-53
2021/10/21 10:19:54;;;;;;;1.52;1.08;;;;;;;;;;5060180;28;20542;-53
2021/10/21 10:22:26;;;;;;;2.30;1.40;;;;;;;;;;5067060;28;20051;-53
2021/10/21 10:24:53;;;;;;;1.27;1.17;;;;;;;;;;5067067;28;20040;-54
2021/10/21 10:27:20;;;;;;;1.92;1.50;;;;;;;;;;5066282;28;20566;-53
2021/10/21 10:29:47;;;;;;;1.85;1.00;;;;;;;;;;5062010;28;20037;-52
2021/10/21 10:32:29;;;;;;;1.42;1.23;;;;;;;;;;5066534;28;20042;-53
2021/10/21 10:34:57;;;;;;;1.38;1.23;;;;;;;;;;5065213;28;20052;-51
2021/10/21 10:37:24;;;;;;;1.48;1.38;;;;;;;;;;5065400;28;20037;-55
2021/10/21 10:39:58;;;;;;;0.90;0.90;;;;;;;;;;5061757;28;20131;-53
2021/10/21 10:42:31;;;;;;;2.22;1.00;;;;;;;;;;5066605;28;20385;-53
2021/10/21 10:44:58;;;;;;;2.45;1.33;;;;;;;;;;5070236;28;20043;-52
2021/10/21 10:47:43;;;;;;;1.00;0.82;;;;;;;;;;5056242;28;20056;-54
2021/10/21 10:50:22;;;;;;;1.48;1.00;;;;;;;;;;5065709;28;20064;-53
2021/10/21 10:52:58;;;;;;;3.33;1.00;;;;;;;;;;5071889;28;20037;-54
2021/10/21 10:55:46;;;;;;;0.90;0.90;;;;;;;;;;5061571;28;20036;-54
2021/10/21 10:58:16;;;;;;;6.03;1.45;;;;;;;;;;5069990;28;20487;-54
2021/10/21 11:00:53;;;;;;;1.33;1.15;;;;;;;;;;5058717;28;20076;-54
2021/10/21 11:03:20;;;;;;;2.20;0.98;;;;;;;;;;5070265;28;20734;-54
2021/10/21 11:05:51;;;;;;;2.65;1.10;;;;;;;;;;5067772;28;20111;-54
2021/10/21 11:08:18;;;;;;;1.08;0.93;;;;;;;;;;5060377;28;20120;-54
2021/10/21 11:10:46;;;;;;;1.30;0.90;;;;;;;;;;5066788;28;21056;-54
2021/10/21 11:13:19;;;;;;;1.75;1.25;;;;;;;;;;5060768;28;20036;-54
2021/10/21 11:15:46;;;;;;;;;;;;;;;;;;5068857;28;20040;-54
2021/10/21 11:18:23;;;;;;;2.05;1.00;;;;;;;;;;5064880;28;19939;-53
2021/10/21 11:20:50;;;;;;;2.33;0.90;;;;;;;;;;5054339;28;20037;-55
2021/10/21 11:23:26;;;;;;;1.92;1.27;;;;;;;;;;5065973;28;20571;-55
2021/10/21 11:25:56;;;;;;;2.03;0.80;;;;;;;;;;5065879;28;20033;-54
2021/10/21 11:28:27;;;;;;;2.22;2.13;;;;;;;;;;5068759;28;20093;-54
2021/10/21 11:30:55;;;;;;;5.05;1.48;;;;;;;;;;5068790;28;20057;-54
2021/10/21 11:33:22;;;;;;;1.40;0.90;;;;;;;;;;5071293;28;20921;-55
2021/10/21 11:35:51;;;;;;;1.27;0.80;;;;;;;;;;5061454;28;20484;-56
2021/10/21 11:38:19;;;;;;;1.40;1.30;;;;;;;;;;5068533;28;20427;-55
2021/10/21 11:40:50;;;;;;;0.75;0.75;;;;;;;;;;5055575;28;20118;-55
2021/10/21 11:46:05;;;;;;;1.40;0.80;;;;;;;;;;5070323;28;20072;-55
2021/10/21 11:48:35;;;;;;;3.05;0.90;;;;;;;;;;5054888;28;20044;-56
2021/10/21 11:51:04;;;;;;;0.82;0.82;;;;;;;;;;5068640;28;20041;-56
2021/10/21 11:53:32;;;;;;;0.90;0.90;;;;;;;;;;5070461;28;20040;-56
2021/10/21 11:55:59;;;;;;;1.30;0.85;;;;;;;;;;5060377;28;20052;-54
2021/10/21 11:58:26;;;;;;;0.70;0.70;;;;;;;;;;5063689;28;20119;-55
2021/10/21 12:00:58;;;;;;;0.90;0.90;;;;;;;;;;5051889;28;20094;-56
2021/10/21 12:03:44;;;;;;;1.58;0.70;;;;;;;;;;5064670;28;20080;-55
2021/10/21 12:06:14;;;;;;;1.08;0.80;;;;;;;;;;5059034;28;20037;-56
2021/10/21 12:08:54;;;;;;;1.77;0.70;;;;;;;;;;5068157;28;20516;-55
2021/10/21 12:11:21;;;;;;;3.83;0.80;;;;;;;;;;5067620;28;20565;-55
2021/10/21 12:13:48;;;;;;;0.82;0.80;;;;;;;;;;5057892;28;20480;-55
2021/10/21 12:16:21;;;;;;;2.25;0.80;;;;;;;;;;5069570;28;20044;-56
2021/10/21 12:19:10;;;;;;;1.13;0.90;;;;;;;;;;5066994;28;20040;-55
2021/10/21 12:21:39;;;;;;;1.13;0.88;;;;;;;;;;5069120;28;20048;-55
2021/10/21 12:24:22;;;;;;;0.75;0.75;;;;;;;;;;5069999;28;20582;-55
2021/10/21 12:26:51;;;;;;;0.80;0.80;;;;;;;;;;5066616;28;20493;-55
2021/10/21 12:29:18;;;;;;;1.38;0.70;;;;;;;;;;5052677;28;20041;-55
2021/10/21 12:31:47;;;;;;;1.10;0.80;;;;;;;;;;5069400;28;20041;-56
2021/10/21 12:34:24;;;;;;;0.80;0.80;;;;;;;;;;5058140;28;20436;-57
2021/10/21 12:36:53;;;;;;;2.58;0.80;;;;;;;;;;5065065;28;20045;-56
2021/10/21 12:39:32;;;;;;;0.70;0.70;;;;;;;;;;5065584;28;20505;-56
2021/10/21 12:42:04;;;;;;;0.70;0.70;;;;;;;;;;5058100;28;20032;-56
2021/10/21 12:44:31;;;;;;;0.82;0.80;;;;;;;;;;5069719;28;20755;-55
2021/10/21 12:47:20;;;;;;;2.15;0.80;;;;;;;;;;5068496;28;20060;-55
2021/10/21 12:50:05;;;;;;;0.88;0.88;;;;;;;;;;5063147;28;20037;-51
2021/10/21 12:52:34;;;;;;;0.80;0.80;;;;;;;;;;5062175;28;20040;-55
2021/10/21 12:55:18;;;;;;;0.70;0.70;;;;;;;;;;5060057;28;20365;-47
2021/10/21 12:57:59;;;;;;;1.10;1.00;;;;;;;;;;5063887;28;20064;-45
2021/10/21 13:00:30;;;;;;;0.80;0.80;;;;;;;;;;5057514;28;20094;-45
2021/10/21 13:03:06;;;;;;;0.80;0.80;;;;;;;;;;5061529;28;20044;-44
2021/10/21 13:05:34;;;;;;;1.02;0.90;;;;;;;;;;5068569;28;20039;-44
2021/10/21 13:08:01;;;;;;;1.15;0.70;;;;;;;;;;5067866;28;20040;-44
2021/10/21 13:10:28;;;;;;;2.00;0.90;;;;;;;;;;5066866;28;20041;-47
2021/10/21 13:12:54;;;;;;;2.92;1.23;;;;;;;;;;5062778;28;20029;-47
2021/10/21 13:15:21;;;;;;;4.03;0.80;;;;;;;;;;5059033;28;20040;-45
2021/10/21 13:17:48;;;;;;;0.75;0.75;;;;;;;;;;5053939;28;20041;-44
2021/10/21 13:20:17;;;;;;;0.88;0.82;;;;;;;;;;5065783;28;20460;-45
2021/10/21 13:22:43;;;;;;;1.30;1.15;;;;;;;;;;5067009;28;20056;-47
2021/10/21 13:25:10;;;;;;;1.70;0.90;;;;;;;;;;5068525;28;20052;-45
2021/10/21 13:27:37;;;;;;;2.55;0.90;;;;;;;;;;5067428;28;20067;-47
2021/10/21 13:30:05;;;;;;;1.55;0.70;;;;;;;;;;5054626;28;20098;-45
2021/10/21 13:32:32;;;;;;;0.80;0.80;;;;;;;;;;5062200;28;20044;-47
2021/10/21 13:34:59;;;;;;;1.48;1.23;;;;;;;;;;5054469;28;20064;-45
2021/10/21 13:37:26;;;;;;;1.08;0.90;;;;;;;;;;5069199;28;20098;-47
2021/10/21 13:39:53;;;;;;;0.80;0.80;;;;;;;;;;5064751;28;20048;-47
2021/10/21 13:42:20;;;;;;;2.38;1.33;;;;;;;;;;5061514;28;20048;-45
2021/10/21 13:44:46;;;;;;;1.73;1.10;;;;;;;;;;5063201;28;20049;-45
2021/10/21 13:47:13;;;;;;;1.70;0.90;;;;;;;;;;5054896;28;20086;-45
2021/10/21 13:49:41;;;;;;;10.80;5.82;;;;;;;;;;5069281;28;20373;-45
2021/10/21 13:52:08;;;;;;;3.75;2.35;;;;;;;;;;5065097;28;20087;-45
2021/10/21 13:54:36;;;;;;;4.03;3.13;;;;;;;;;;5068568;28;20041;-46
2021/10/21 13:57:04;;;;;;;1.48;1.20;;;;;;;;;;5067917;28;20048;-47
2021/10/21 13:59:32;;;;;;;2.60;0.98;;;;;;;;;;5054866;28;20098;-47
2021/10/21 14:01:58;;;;;;;1.40;1.27;;;;;;;;;;5066696;28;20668;-46
2021/10/21 14:04:25;;;;;;;4.72;1.00;;;;;;;;;;5067618;28;20041;-45
2021/10/21 14:06:52;;;;;;;4.00;1.63;;;;;;;;;;5066208;28;20080;-46
2021/10/21 14:09:19;;;;;;;6.03;2.47;;;;;;;;;;5068887;28;20071;-46
2021/10/21 14:11:45;;;;;;;86.80;38.67;;;;;;;;;;5061116;28;20394;-45
2021/10/21 14:14:12;;;;;;;29.17;13.40;;;;;;;;;;5059449;28;20041;-47
2021/10/21 14:16:39;;;;;;;3.78;2.58;;;;;;;;;;5065302;28;20072;-47
2021/10/21 14:19:06;;;;;;;1.58;1.00;;;;;;;;;;5066313;28;20033;-46
2021/10/21 14:21:33;;;;;;;0.80;0.80;;;;;;;;;;5060649;28;20059;-45
2021/10/21 14:24:00;;;;;;;1.15;0.90;;;;;;;;;;5063421;28;20044;-44
2021/10/21 14:26:26;;;;;;;2.85;0.85;;;;;;;;;;5063375;28;20059;-45
2021/10/21 14:28:58;;;;;;;1.30;1.20;;;;;;;;;;5070563;28;20036;-44
2021/10/21 14:31:25;;;;;;;1.45;0.90;;;;;;;;;;5071188;28;20913;-44
2021/10/21 14:33:52;;;;;;;1.00;0.85;;;;;;;;;;5073272;28;20063;-49
2021/10/21 14:36:18;;;;;;;0.95;0.80;;;;;;;;;;5070522;28;20123;-48
2021/10/21 14:38:45;;;;;;;1.58;1.05;;;;;;;;;;5053816;28;20053;-47
2021/10/21 14:41:12;;;;;;;1.67;1.00;;;;;;;;;;5072005;28;20127;-48
2021/10/21 14:43:39;;;;;;;0.90;0.88;;;;;;;;;;5072386;28;20040;-48
2021/10/21 14:46:05;;;;;;;0.98;0.80;;;;;;;;;;5069907;28;20044;-47
2021/10/21 14:48:32;;;;;;;2.05;0.90;;;;;;;;;;5069174;28;20724;-49
2021/10/21 14:50:59;;;;;;;2.63;0.80;;;;;;;;;;5054202;28;20497;-46
2021/10/21 14:53:26;;;;;;;3.13;1.75;;;;;;;;;;5070503;28;20035;-49